Time;durP1;ratioP1;P1;durP2;ratioP2;P2;SDS_P1;SDS_P2;PMS_P1;PMS_P2;Temp;Humidity;BMP_temperature;BMP_pressure;BME280_temperature;BME280_humidity;BME280_pressure;Samples;Min_cycle;Max_cycle;Signal;HPM_P1;HPM_P2
2023/05/02 00:00:50;;;;;;;32.45;19.20;;;;;;;10.72;100.00;101430.25;4977198;28;20043;-77
2023/05/02 00:03:16;;;;;;;34.55;19.02;;;;;;;10.64;100.00;101439.81;4973501;28;20054;-76
2023/05/02 00:05:43;;;;;;;34.45;18.65;;;;;;;10.58;100.00;101435.03;4976840;28;20529;-76
2023/05/02 00:08:10;;;;;;;33.47;19.58;;;;;;;10.52;100.00;101431.88;4968953;28;20046;-79
2023/05/02 00:10:37;;;;;;;33.78;18.75;;;;;;;10.45;100.00;101440.22;4985259;28;20497;-74
2023/05/02 00:13:04;;;;;;;34.67;18.80;;;;;;;10.38;100.00;101442.22;4972458;28;20043;-78
2023/05/02 00:15:30;;;;;;;34.92;19.23;;;;;;;10.31;100.00;101447.78;4979755;28;20046;-76
2023/05/02 00:17:57;;;;;;;38.75;20.20;;;;;;;10.27;100.00;101458.91;4982971;28;20050;-77
2023/05/02 00:20:24;;;;;;;36.92;21.13;;;;;;;10.25;100.00;101454.91;4973522;28;20051;-79
2023/05/02 00:22:50;;;;;;;36.78;20.77;;;;;;;10.22;100.00;101450.97;4979412;28;20042;-78
2023/05/02 00:25:17;;;;;;;35.83;20.33;;;;;;;10.18;100.00;101455.72;4979419;28;20050;-76
2023/05/02 00:27:45;;;;;;;40.03;23.52;;;;;;;10.17;100.00;101459.72;4988162;28;20069;-78
2023/05/02 00:30:13;;;;;;;43.00;23.65;;;;;;;10.14;100.00;101456.91;4977058;28;20139;-77
2023/05/02 00:32:39;;;;;;;44.55;22.42;;;;;;;10.08;100.00;101459.28;4979427;28;20101;-77
2023/05/02 00:35:06;;;;;;;38.30;22.65;;;;;;;10.03;100.00;101462.47;4975315;28;20568;-77
2023/05/02 00:37:33;;;;;;;48.03;24.25;;;;;;;10.03;100.00;101470.81;4981584;28;20515;-76
2023/05/02 00:40:00;;;;;;;44.05;23.30;;;;;;;10.00;100.00;101458.50;4977437;28;20133;-76
2023/05/02 00:42:30;;;;;;;45.25;24.70;;;;;;;10.00;100.00;101458.50;4973376;28;20038;-77
2023/05/02 00:44:57;;;;;;;47.63;24.05;;;;;;;9.98;100.00;101462.81;4984779;28;20050;-77
2023/05/02 00:47:23;;;;;;;50.15;24.42;;;;;;;9.95;100.00;101461.66;4981864;28;20062;-79
2023/05/02 00:49:50;;;;;;;49.65;24.77;;;;;;;9.97;100.00;101461.25;4973486;28;20045;-76
2023/05/02 00:52:17;;;;;;;45.33;24.23;;;;;;;9.82;100.00;101457.66;4979979;28;20464;-78
2023/05/02 00:54:44;;;;;;;46.55;25.48;;;;;;;9.85;100.00;101454.09;4977448;28;20054;-77
2023/05/02 00:57:11;;;;;;;47.20;25.15;;;;;;;9.82;100.00;101454.88;4975298;28;20206;-78
2023/05/02 00:59:38;;;;;;;52.00;28.20;;;;;;;9.80;100.00;101453.69;4977292;28;20050;-76
2023/05/02 01:02:10;;;;;;;48.53;25.90;;;;;;;9.71;100.00;101465.19;4984990;28;20405;-77
2023/05/02 01:05:09;;;;;;;52.17;26.73;;;;;;;9.69;100.00;101464.00;4979714;28;20053;-78
2023/05/02 01:07:57;;;;;;;50.28;27.02;;;;;;;9.74;100.00;101469.94;4979824;28;20046;-74
2023/05/02 01:10:36;;;;;;;48.72;25.75;;;;;;;9.70;100.00;101469.13;4975269;28;20075;-80
2023/05/02 01:13:08;;;;;;;53.30;27.80;;;;;;;9.69;100.00;101472.31;4971658;28;20050;-76
2023/05/02 01:15:38;;;;;;;47.95;26.05;;;;;;;9.76;100.00;101483.44;4973076;28;20489;-77
2023/05/02 01:18:08;;;;;;;53.60;27.05;;;;;;;9.78;100.00;101481.84;4981457;28;20042;-77
2023/05/02 01:20:40;;;;;;;46.95;26.33;;;;;;;9.81;100.00;101485.81;4972273;28;20047;-74
2023/05/02 01:23:23;;;;;;;55.00;26.38;;;;;;;9.90;100.00;101472.34;4982563;28;20061;-77
2023/05/02 01:26:16;;;;;;;54.97;28.98;;;;;;;9.94;100.00;101484.25;4980019;28;20129;-77
2023/05/02 01:28:58;;;;;;;51.95;29.40;;;;;;;10.00;100.00;101491.06;4982938;28;20070;-76
2023/05/02 01:31:27;;;;;;;56.78;28.65;;;;;;;9.98;100.00;101482.28;4976576;28;20038;-74
2023/05/02 01:33:57;;;;;;;47.08;21.30;;;;;;;9.94;100.00;101492.59;4972507;28;20520;-75
2023/05/02 01:36:27;;;;;;;52.60;29.33;;;;;;;9.90;100.00;101494.56;4982000;28;20048;-75
2023/05/02 01:38:54;;;;;;;55.38;26.00;;;;;;;9.99;100.00;101503.34;4980132;28;20059;-74
2023/05/02 01:41:25;;;;;;;51.83;26.30;;;;;;;9.89;100.00;101502.09;4977194;28;20058;-74
2023/05/02 01:43:56;;;;;;;51.58;27.10;;;;;;;9.94;100.00;101509.25;4983214;28;20053;-77
2023/05/02 01:46:30;;;;;;;53.47;26.92;;;;;;;9.99;100.00;101520.00;4972535;28;20050;-75
2023/05/02 01:48:58;;;;;;;53.25;25.73;;;;;;;10.01;100.00;101509.31;4979072;28;20512;-76
2023/05/02 01:51:30;;;;;;;50.20;26.02;;;;;;;10.04;100.00;101514.06;4984093;28;20046;-75
2023/05/02 01:54:07;;;;;;;47.80;24.45;;;;;;;10.02;100.00;101524.00;4986781;28;20141;-75
2023/05/02 01:56:36;;;;;;;47.05;22.90;;;;;;;10.03;100.00;101526.38;4978084;28;20042;-74
2023/05/02 01:59:09;;;;;;;46.13;22.77;;;;;;;9.95;100.00;101527.50;4970135;28;20050;-75
2023/05/02 02:01:37;;;;;;;49.35;22.85;;;;;;;9.96;100.00;101532.66;4997173;28;20042;-74
2023/05/02 02:04:07;;;;;;;44.20;22.30;;;;;;;10.03;100.00;101531.94;4976005;28;20050;-76
2023/05/02 02:06:34;;;;;;;47.58;22.13;;;;;;;10.03;100.00;101532.72;4978059;28;20046;-75
2023/05/02 02:09:02;;;;;;;44.85;22.20;;;;;;;10.04;100.00;101536.28;4985801;28;20042;-73
2023/05/02 02:12:10;;;;;;;46.60;21.95;;;;;;;10.02;100.00;101549.00;4978219;28;20092;-75
2023/05/02 02:14:41;;;;;;;46.30;22.95;;;;;;;10.00;100.00;101552.16;4967100;28;20886;-74
2023/05/02 02:17:15;;;;;;;34.42;15.60;;;;;;;9.88;100.00;101549.72;4967260;28;20058;-74
2023/05/02 02:19:42;;;;;;;49.45;22.02;;;;;;;9.93;100.00;101552.91;4966977;28;20633;-75
2023/05/02 02:22:12;;;;;;;44.55;22.08;;;;;;;9.98;100.00;101558.13;4959409;28;20057;-77
2023/05/02 02:24:39;;;;;;;43.35;19.73;;;;;;;9.87;100.00;101551.69;4967321;28;20081;-76
2023/05/02 02:27:06;;;;;;;44.25;20.35;;;;;;;9.93;100.00;101549.34;4959100;28;20915;-75
2023/05/02 02:29:32;;;;;;;40.67;20.70;;;;;;;9.93;100.00;101552.13;4967361;28;20498;-77
2023/05/02 02:31:59;;;;;;;41.25;18.15;;;;;;;9.89;100.00;101552.09;4965769;28;20050;-76
2023/05/02 02:34:25;;;;;;;41.72;19.55;;;;;;;9.86;100.00;101558.44;4965878;28;20137;-76
2023/05/02 02:37:10;;;;;;;40.55;20.63;;;;;;;9.88;100.00;101561.63;4967304;28;20055;-75
2023/05/02 02:39:50;;;;;;;41.10;19.90;;;;;;;9.90;100.00;101562.00;4966353;28;20050;-75
2023/05/02 02:42:38;;;;;;;42.45;19.10;;;;;;;9.92;100.00;101564.41;4966251;28;20054;-74
2023/05/02 02:45:20;;;;;;;37.80;17.95;;;;;;;9.93;100.00;101561.22;4951799;28;20449;-75
2023/05/02 02:48:01;;;;;;;40.15;18.23;;;;;;;9.94;100.00;101562.84;4980411;28;20434;-74
2023/05/02 02:50:45;;;;;;;37.28;16.02;;;;;;;9.96;100.00;101567.97;4969418;28;20501;-75
2023/05/02 02:53:24;;;;;;;40.90;18.92;;;;;;;9.97;100.00;101566.81;4983099;28;20050;-75
2023/05/02 02:56:04;;;;;;;33.78;15.32;;;;;;;9.86;100.00;101563.22;4974626;28;20054;-75
2023/05/02 02:58:34;;;;;;;35.55;16.00;;;;;;;9.80;100.00;101573.88;4974946;28;20137;-74
2023/05/02 03:01:05;;;;;;;36.05;15.63;;;;;;;9.87;100.00;101567.56;4972001;28;20076;-76
2023/05/02 03:03:33;;;;;;;31.25;12.95;;;;;;;9.78;100.00;101570.72;4974517;28;20039;-75
2023/05/02 03:06:02;;;;;;;36.38;15.38;;;;;;;9.75;100.00;101577.06;4969118;28;20203;-76
2023/05/02 03:08:38;;;;;;;34.65;15.43;;;;;;;9.70;100.00;101584.97;4969200;28;20058;-77
2023/05/02 03:11:04;;;;;;;33.97;13.75;;;;;;;9.71;100.00;101581.00;4969079;28;20502;-76
2023/05/02 03:13:31;;;;;;;32.95;14.38;;;;;;;9.71;100.00;101576.25;4968347;28;20069;-76
2023/05/02 03:16:16;;;;;;;34.28;13.57;;;;;;;9.69;100.00;101586.16;4970590;28;20058;-75
2023/05/02 03:18:43;;;;;;;31.63;14.02;;;;;;;9.69;100.00;101586.16;4974758;28;20055;-76
2023/05/02 03:21:09;;;;;;;37.15;14.20;;;;;;;9.78;100.00;101592.13;4969220;28;20055;-76
2023/05/02 03:23:36;;;;;;;31.35;13.73;;;;;;;9.65;100.00;101590.88;4975396;28;20038;-76
2023/05/02 03:26:03;;;;;;;26.02;10.98;;;;;;;9.61;100.00;101582.56;4968991;28;20055;-76
2023/05/02 03:28:29;;;;;;;29.52;12.35;;;;;;;9.76;100.00;101586.97;4976775;28;20517;-75
2023/05/02 03:30:55;;;;;;;32.63;11.52;;;;;;;9.79;100.00;101588.16;4973342;28;20053;-76
2023/05/02 03:33:22;;;;;;;27.40;10.02;;;;;;;9.70;100.00;101590.53;4983471;28;20057;-78
2023/05/02 03:35:49;;;;;;;26.30;9.55;;;;;;;9.70;100.00;101588.53;4967677;28;20137;-75
2023/05/02 03:38:15;;;;;;;26.70;10.90;;;;;;;9.70;100.00;101587.75;4968152;28;20051;-74
2023/05/02 03:40:42;;;;;;;30.80;12.60;;;;;;;9.81;100.00;101597.72;4968948;28;20074;-75
2023/05/02 03:43:08;;;;;;;27.00;10.85;;;;;;;9.80;100.00;101598.88;4970244;28;20540;-75
2023/05/02 03:45:35;;;;;;;25.98;9.93;;;;;;;9.86;100.00;101602.88;4973017;28;20061;-72
2023/05/02 03:48:01;;;;;;;26.52;10.50;;;;;;;9.87;100.00;101610.00;4970185;28;20502;-73
2023/05/02 03:50:28;;;;;;;27.95;10.45;;;;;;;9.93;100.00;101616.78;4977448;28;20062;-77
2023/05/02 03:52:55;;;;;;;28.80;10.23;;;;;;;9.92;100.00;101598.53;4974131;28;20070;-75
2023/05/02 03:55:21;;;;;;;22.02;9.75;;;;;;;9.94;100.00;101612.03;4974086;28;20055;-75
2023/05/02 03:57:48;;;;;;;28.13;10.75;;;;;;;9.98;100.00;101612.84;4967948;28;20061;-76
2023/05/02 04:00:14;;;;;;;21.85;8.35;;;;;;;9.99;100.00;101631.13;4975923;28;20514;-76
2023/05/02 04:02:41;;;;;;;24.60;9.32;;;;;;;10.02;100.00;101624.78;4968669;28;20043;-75
2023/05/02 04:05:08;;;;;;;26.92;10.60;;;;;;;9.99;100.00;101620.00;4986315;28;20061;-77
2023/05/02 04:07:35;;;;;;;25.85;9.40;;;;;;;10.07;100.00;101620.84;4976818;28;20101;-74
2023/05/02 04:10:01;;;;;;;27.27;10.60;;;;;;;10.06;100.00;101627.59;4968478;28;20526;-76
2023/05/02 04:12:28;;;;;;;26.88;10.68;;;;;;;10.04;100.00;101625.97;4976674;28;20054;-74
2023/05/02 04:14:55;;;;;;;29.20;11.50;;;;;;;10.00;100.00;101633.50;4974163;28;20062;-76
2023/05/02 04:17:21;;;;;;;26.15;11.02;;;;;;;10.00;100.00;101633.50;4968334;28;20082;-77
2023/05/02 04:19:48;;;;;;;28.33;11.25;;;;;;;9.94;100.00;101645.38;4968323;28;20161;-75
2023/05/02 04:22:14;;;;;;;26.58;10.70;;;;;;;9.96;100.00;101638.22;4973475;28;20552;-74
2023/05/02 04:24:41;;;;;;;28.52;11.77;;;;;;;10.00;100.00;101643.84;4968152;28;20046;-73
2023/05/02 04:27:07;;;;;;;27.83;12.00;;;;;;;10.02;100.00;101637.91;4968115;28;20089;-76
2023/05/02 04:29:34;;;;;;;28.95;11.43;;;;;;;10.04;100.00;101653.75;4974968;28;20524;-75
2023/05/02 04:32:00;;;;;;;26.50;10.90;;;;;;;9.99;100.00;101647.78;4969371;28;20065;-74
2023/05/02 04:34:27;;;;;;;28.65;12.27;;;;;;;9.98;100.00;101654.50;4968271;28;20050;-75
2023/05/02 04:36:53;;;;;;;26.52;11.57;;;;;;;9.97;100.00;101664.81;4968439;28;20050;-74
2023/05/02 04:39:20;;;;;;;25.63;11.68;;;;;;;9.98;100.00;101665.63;4974381;28;20065;-74
2023/05/02 04:41:47;;;;;;;27.70;11.18;;;;;;;9.98;100.00;101663.69;4973969;28;20134;-73
2023/05/02 04:44:13;;;;;;;29.55;12.07;;;;;;;9.99;100.00;101675.56;4967546;28;20442;-77
2023/05/02 04:46:40;;;;;;;26.73;11.00;;;;;;;9.81;100.00;101671.91;4968062;28;20076;-74
2023/05/02 04:49:07;;;;;;;29.27;11.25;;;;;;;9.84;100.00;101683.03;4967292;28;20453;-73
2023/05/02 04:51:33;;;;;;;28.63;12.57;;;;;;;9.85;100.00;101690.19;4980666;28;20053;-75
2023/05/02 04:54:00;;;;;;;25.50;10.15;;;;;;;9.79;100.00;101694.50;4972420;28;20062;-74
2023/05/02 04:56:27;;;;;;;24.75;9.70;;;;;;;9.78;100.00;101698.47;4968670;28;20513;-75
2023/05/02 04:58:54;;;;;;;26.30;11.32;;;;;;;9.79;100.00;101713.94;4965667;28;20096;-74
2023/05/02 05:01:20;;;;;;;25.55;10.13;;;;;;;9.68;100.00;101715.88;4968271;28;20054;-76
2023/05/02 05:03:47;;;;;;;15.18;5.38;;;;;;;9.67;100.00;101721.81;4971052;28;20061;-77
2023/05/02 05:06:14;;;;;;;20.00;7.30;;;;;;;9.66;100.00;101725.78;4970966;28;20193;-76
2023/05/02 05:08:41;;;;;;;19.25;6.57;;;;;;;9.60;100.00;101732.88;4971473;28;20422;-76
2023/05/02 05:11:07;;;;;;;19.27;7.30;;;;;;;9.64;100.00;101731.72;4971035;28;20055;-75
2023/05/02 05:13:34;;;;;;;17.55;5.70;;;;;;;9.59;100.00;101728.50;4971048;28;20050;-77
2023/05/02 05:16:01;;;;;;;17.42;5.95;;;;;;;9.66;100.00;101736.88;4971375;28;20047;-76
2023/05/02 05:18:28;;;;;;;13.88;5.07;;;;;;;9.62;100.00;101736.03;4970912;28;20086;-77
2023/05/02 05:20:55;;;;;;;13.05;5.18;;;;;;;9.56;100.00;101748.72;4979117;28;20065;-76
2023/05/02 05:23:21;;;;;;;17.67;5.80;;;;;;;9.55;100.00;101738.78;4979452;28;20511;-76
2023/05/02 05:25:48;;;;;;;13.20;5.35;;;;;;;9.60;100.00;101752.31;4971869;28;20061;-77
2023/05/02 05:28:14;;;;;;;16.63;5.72;;;;;;;9.61;100.00;101751.13;4976500;28;20421;-76
2023/05/02 05:30:41;;;;;;;14.00;5.35;;;;;;;9.61;100.00;101757.47;4990438;28;20046;-78
2023/05/02 05:33:07;;;;;;;13.23;5.35;;;;;;;9.66;100.00;101767.44;4989964;28;20061;-77
2023/05/02 05:35:34;;;;;;;15.80;6.20;;;;;;;9.67;100.00;101769.00;4986994;28;20076;-76
2023/05/02 05:38:00;;;;;;;13.98;5.53;;;;;;;9.69;100.00;101773.00;4989666;28;20531;-75
2023/05/02 05:40:27;;;;;;;16.00;5.60;;;;;;;9.67;100.00;101778.16;4989764;28;20428;-75
2023/05/02 05:42:53;;;;;;;17.85;5.68;;;;;;;9.68;100.00;101776.16;4987859;28;20073;-76
2023/05/02 05:45:20;;;;;;;17.23;6.32;;;;;;;9.65;100.00;101774.94;4988861;28;20085;-75
2023/05/02 05:47:46;;;;;;;14.32;5.53;;;;;;;9.65;100.00;101765.81;4990005;28;20062;-74
2023/05/02 05:50:13;;;;;;;18.50;5.68;;;;;;;9.69;100.00;101773.00;4984889;28;20058;-74
2023/05/02 05:52:41;;;;;;;17.08;6.15;;;;;;;9.68;100.00;101781.72;4982906;28;20053;-74
2023/05/02 05:55:08;;;;;;;17.00;6.28;;;;;;;9.70;100.00;101780.13;4974052;28;20165;-74
2023/05/02 05:57:35;;;;;;;13.35;5.70;;;;;;;9.71;100.00;101789.28;4976141;28;20046;-75
2023/05/02 06:00:01;;;;;;;17.65;6.03;;;;;;;9.74;100.00;101792.09;4988696;28;20140;-74
2023/05/02 06:02:28;;;;;;;16.10;5.97;;;;;;;9.70;100.00;101790.47;4973315;28;20102;-75
2023/05/02 06:04:55;;;;;;;18.85;6.63;;;;;;;9.78;100.00;101797.66;4975227;28;20137;-75
2023/05/02 06:07:22;;;;;;;16.35;6.03;;;;;;;9.74;100.00;101805.16;4972263;28;20057;-75
2023/05/02 06:09:48;;;;;;;22.23;6.97;;;;;;;9.81;100.00;101802.44;4981421;28;20444;-76
2023/05/02 06:12:15;;;;;;;18.40;6.80;;;;;;;9.88;100.00;101808.84;4983228;28;20054;-77
2023/05/02 06:14:42;;;;;;;16.42;6.80;;;;;;;9.88;100.00;101805.25;4969220;28;20576;-74
2023/05/02 06:17:08;;;;;;;20.98;6.75;;;;;;;9.95;100.00;101805.31;4970058;28;20054;-74
2023/05/02 06:19:35;;;;;;;10.10;4.93;;;;;;;10.02;100.00;101810.94;4969634;28;20054;-77
2023/05/02 06:22:01;;;;;;;14.02;4.65;;;;;;;10.04;100.00;101811.34;4979554;28;20058;-73
2023/05/02 06:24:28;;;;;;;17.35;5.47;;;;;;;10.07;100.00;101816.91;4977776;28;20046;-75
2023/05/02 06:26:54;;;;;;;16.25;6.18;;;;;;;10.16;100.00;101819.34;4980324;28;20061;-76
2023/05/02 06:29:20;;;;;;;16.40;6.78;;;;;;;10.20;100.00;101819.38;4984086;28;20050;-74
2023/05/02 06:31:49;;;;;;;14.13;4.10;;;;;;;10.25;100.00;101828.16;4973276;28;20061;-78
2023/05/02 06:34:16;;;;;;;14.57;5.50;;;;;;;10.23;100.00;101836.06;4976959;28;20776;-74
2023/05/02 06:36:42;;;;;;;16.23;5.25;;;;;;;10.22;100.00;101826.13;4975188;28;20046;-75
2023/05/02 06:39:09;;;;;;;17.05;5.65;;;;;;;10.22;100.00;101839.25;4971667;28;20051;-76
2023/05/02 06:41:35;;;;;;;10.68;4.07;;;;;;;10.22;100.00;101840.03;4980225;28;20047;-75
2023/05/02 06:44:04;;;;;;;11.90;4.80;;;;;;;10.25;100.00;101844.00;4979522;28;20062;-76
2023/05/02 06:46:32;;;;;;;18.02;5.28;;;;;;;10.28;100.00;101848.81;4969698;28;20463;-73
2023/05/02 06:48:59;;;;;;;17.85;4.85;;;;;;;10.22;100.00;101859.50;4975017;28;20140;-74
2023/05/02 06:51:26;;;;;;;14.88;4.63;;;;;;;10.21;100.00;101859.88;4972602;28;20050;-74
2023/05/02 06:53:53;;;;;;;11.07;4.47;;;;;;;10.19;100.00;101857.47;4974925;28;20135;-75
2023/05/02 06:56:19;;;;;;;13.65;5.03;;;;;;;10.24;100.00;101859.09;4975908;28;20589;-74
2023/05/02 06:58:46;;;;;;;12.18;4.85;;;;;;;10.27;100.00;101875.00;4968492;28;20054;-73
2023/05/02 07:01:12;;;;;;;8.73;3.30;;;;;;;10.18;100.00;101869.78;4969058;28;20063;-75
2023/05/02 07:03:39;;;;;;;9.60;3.80;;;;;;;10.22;100.00;101878.94;4969024;28;20053;-75
2023/05/02 07:06:05;;;;;;;11.23;4.20;;;;;;;10.28;100.00;101882.97;4976970;28;20129;-73
2023/05/02 07:08:32;;;;;;;6.40;3.40;;;;;;;10.23;100.00;101885.31;4980466;28;20047;-75
2023/05/02 07:10:58;;;;;;;14.25;4.10;;;;;;;10.20;100.00;101895.22;4970056;28;20081;-76
2023/05/02 07:13:25;;;;;;;14.88;4.20;;;;;;;10.17;100.00;101895.19;4973024;28;20046;-76
2023/05/02 07:15:52;;;;;;;8.60;3.10;;;;;;;10.05;100.00;101901.84;4969132;28;20050;-76
2023/05/02 07:18:18;;;;;;;7.32;3.17;;;;;;;9.94;100.00;101915.66;4969072;28;20057;-79
2023/05/02 07:20:45;;;;;;;8.05;2.90;;;;;;;9.91;100.00;101916.41;4974403;28;20059;-72
2023/05/02 07:23:12;;;;;;;8.75;3.53;;;;;;;9.85;100.00;101931.84;4977961;28;20050;-74
2023/05/02 07:25:38;;;;;;;4.72;2.55;;;;;;;9.81;100.00;101930.19;4972092;28;20050;-73
2023/05/02 07:28:05;;;;;;;5.80;2.70;;;;;;;9.71;100.00;101942.81;4982684;28;20057;-73
2023/05/02 07:30:32;;;;;;;2.22;1.02;;;;;;;9.61;100.00;101934.38;4987600;28;20050;-76
2023/05/02 07:32:58;;;;;;;6.90;3.35;;;;;;;9.65;100.00;101937.97;4974913;28;20061;-74
2023/05/02 07:35:25;;;;;;;5.65;2.10;;;;;;;9.51;100.00;101943.38;4974576;28;20476;-74
2023/05/02 07:37:52;;;;;;;7.78;2.80;;;;;;;9.56;100.00;101952.16;4987618;28;20053;-76
2023/05/02 07:40:18;;;;;;;8.38;3.10;;;;;;;9.58;100.00;101949.81;4982706;28;20058;-72
2023/05/02 07:42:45;;;;;;;5.65;2.25;;;;;;;9.50;100.00;101955.69;4973588;28;20073;-73
2023/05/02 07:45:12;;;;;;;6.95;2.40;;;;;;;9.51;100.00;101949.75;4968188;28;20057;-73
2023/05/02 07:47:38;;;;;;;4.25;2.28;;;;;;;9.46;100.00;101963.97;4968487;28;20054;-73
2023/05/02 07:50:05;;;;;;;6.45;2.47;;;;;;;9.38;100.00;101967.84;4975163;28;20485;-73
2023/05/02 07:52:32;;;;;;;6.97;2.58;;;;;;;9.29;100.00;101972.09;4975677;28;20051;-74
2023/05/02 07:54:59;;;;;;;4.97;2.38;;;;;;;9.33;100.00;101981.25;4970446;28;20065;-75
2023/05/02 07:57:25;;;;;;;9.25;2.35;;;;;;;9.31;100.00;101978.06;4979907;28;20053;-73
2023/05/02 07:59:52;;;;;;;8.55;2.25;;;;;;;9.15;100.00;101977.50;4982236;28;20050;-73
2023/05/02 08:02:19;;;;;;;5.45;2.35;;;;;;;9.10;100.00;101994.44;4973774;28;20062;-72
2023/05/02 08:04:46;;;;;;;9.48;3.17;;;;;;;9.01;100.00;101996.69;4977910;28;20046;-75
2023/05/02 08:07:13;;;;;;;7.90;3.05;;;;;;;8.89;100.00;102005.28;4977057;28;20065;-75
2023/05/02 08:09:39;;;;;;;15.07;5.68;;;;;;;8.77;100.00;101999.94;4977250;28;20054;-75
2023/05/02 08:12:06;;;;;;;15.38;4.20;;;;;;;8.71;100.00;102009.78;4974475;28;20065;-73
2023/05/02 08:14:33;;;;;;;13.55;4.13;;;;;;;8.65;100.00;102017.59;4978211;28;20060;-76
2023/05/02 08:16:59;;;;;;;10.98;3.60;;;;;;;8.59;100.00;102012.72;4981897;28;20062;-74
2023/05/02 08:19:26;;;;;;;12.05;4.25;;;;;;;8.63;100.00;102025.50;4969129;28;20597;-75
2023/05/02 08:21:53;;;;;;;15.73;4.22;;;;;;;8.64;100.00;102032.63;4974165;28;20180;-75
2023/05/02 08:24:20;;;;;;;13.50;3.97;;;;;;;8.75;100.00;102028.03;4974578;28;20420;-77
2023/05/02 08:26:47;;;;;;;12.35;4.45;;;;;;;8.83;100.00;102034.50;4975672;28;20748;-72
2023/05/02 08:29:13;;;;;;;12.48;3.75;;;;;;;8.74;100.00;102037.53;4974307;28;20068;-75
2023/05/02 08:31:40;;;;;;;13.25;4.55;;;;;;;8.72;100.00;102030.78;4975225;28;20043;-74
2023/05/02 08:34:10;;;;;;;14.43;4.47;;;;;;;8.77;100.00;102036.78;4980479;28;20532;-75
2023/05/02 08:36:36;;;;;;;13.57;4.45;;;;;;;8.79;100.00;102047.50;4970029;28;20057;-73
2023/05/02 08:39:03;;;;;;;10.95;4.65;;;;;;;8.76;100.00;102040.75;4989922;28;20513;-77
2023/05/02 08:41:30;;;;;;;16.88;4.22;;;;;;;8.85;100.00;102059.91;4982283;28;20765;-73
2023/05/02 08:43:58;;;;;;;14.13;4.50;;;;;;;8.91;100.00;102066.72;4990041;28;20125;-74
2023/05/02 08:46:25;;;;;;;15.65;5.82;;;;;;;8.98;100.00;102061.28;4982832;28;20537;-72
2023/05/02 08:48:52;;;;;;;14.93;5.05;;;;;;;9.03;100.00;102070.06;4984415;28;20057;-74
2023/05/02 08:51:23;;;;;;;13.68;4.40;;;;;;;9.00;100.00;102070.00;4971453;28;20055;-77
2023/05/02 08:53:51;;;;;;;8.73;3.67;;;;;;;8.85;100.00;102076.53;4976305;28;20054;-74
2023/05/02 08:56:18;;;;;;;14.15;3.67;;;;;;;8.79;100.00;102080.78;4972617;28;20090;-73
2023/05/02 08:58:44;;;;;;;12.60;3.60;;;;;;;8.77;100.00;102088.66;4976402;28;20067;-74
2023/05/02 09:01:16;;;;;;;12.10;3.30;;;;;;;8.72;100.00;102092.59;4976983;28;20056;-73
2023/05/02 09:03:45;;;;;;;9.20;3.60;;;;;;;8.77;100.00;102085.91;4977269;28;20138;-77
2023/05/02 09:06:17;;;;;;;12.07;3.67;;;;;;;8.84;100.00;102097.09;4985631;28;20061;-77
2023/05/02 09:08:48;;;;;;;13.82;3.90;;;;;;;8.83;100.00;102092.72;4977908;28;20150;-78
2023/05/02 09:11:15;;;;;;;14.07;3.80;;;;;;;9.01;100.00;102097.38;4978699;28;20081;-75
2023/05/02 09:13:47;;;;;;;12.50;4.22;;;;;;;9.21;100.00;102101.63;4980671;28;20146;-73
2023/05/02 09:16:22;;;;;;;11.75;3.70;;;;;;;9.43;100.00;102099.97;4978937;28;20089;-75
2023/05/02 09:18:49;;;;;;;;;;;;;;;9.65;100.00;102101.81;4982299;28;20097;-75
2023/05/02 09:21:18;;;;;;;12.27;3.45;;;;;;;9.69;100.00;102102.69;4986691;28;19929;-74
2023/05/02 09:23:55;;;;;;;9.80;2.85;;;;;;;9.75;100.00;102098.38;4989911;28;20501;-74
2023/05/02 09:26:32;;;;;;;9.85;2.60;;;;;;;9.84;100.00;102099.69;4987221;28;20061;-74
2023/05/02 09:29:00;;;;;;;12.80;4.25;;;;;;;9.99;100.00;102111.78;4972428;28;20588;-76
2023/05/02 09:31:32;;;;;;;10.85;3.20;;;;;;;10.05;100.00;102110.25;4973322;28;20425;-74
2023/05/02 09:34:13;;;;;;;13.75;3.22;;;;;;;10.14;100.00;102110.75;4980415;28;20101;-75
2023/05/02 09:36:42;;;;;;;14.73;3.33;;;;;;;10.16;100.00;102116.72;4976103;28;20050;-76
2023/05/02 09:39:12;;;;;;;12.27;3.63;;;;;;;10.11;100.00;102125.41;4981041;28;20054;-76
2023/05/02 09:41:41;;;;;;;10.80;2.95;;;;;;;10.15;100.00;102134.59;4991449;28;20054;-77
2023/05/02 09:44:12;;;;;;;15.52;3.33;;;;;;;10.07;100.00;102122.59;4973845;28;20043;-75
2023/05/02 09:46:43;;;;;;;15.50;4.30;;;;;;;10.26;100.00;102124.38;4976787;28;20051;-74
2023/05/02 09:49:10;;;;;;;10.15;3.65;;;;;;;10.28;100.00;102135.91;4980287;28;20432;-75
2023/05/02 09:51:37;;;;;;;20.00;5.30;;;;;;;10.30;100.00;102129.97;4972629;28;20510;-74
2023/05/02 09:54:03;;;;;;;15.90;4.90;;;;;;;10.40;100.00;102134.84;4973734;28;20057;-76
2023/05/02 09:56:30;;;;;;;14.63;5.03;;;;;;;10.42;100.00;102136.06;4976596;28;20057;-76
2023/05/02 09:59:13;;;;;;;11.13;4.20;;;;;;;10.42;100.00;102138.03;4972907;28;20058;-76
2023/05/02 10:01:43;;;;;;;12.93;5.20;;;;;;;10.50;100.00;102143.28;4986316;28;20054;-77
2023/05/02 10:04:17;;;;;;;10.77;4.32;;;;;;;10.56;100.00;102140.97;4976737;28;20062;-76
2023/05/02 10:06:49;;;;;;;17.80;4.77;;;;;;;10.56;100.00;102138.97;4976674;28;20062;-76
2023/05/02 10:09:18;;;;;;;16.63;4.15;;;;;;;10.62;100.00;102143.00;4969792;28;20297;-74
2023/05/02 10:11:54;;;;;;;16.48;4.88;;;;;;;10.66;100.00;102146.59;4973449;28;20058;-72
2023/05/02 10:14:23;;;;;;;13.02;3.97;;;;;;;10.66;100.00;102162.50;4973837;28;20046;-75
2023/05/02 10:16:51;;;;;;;11.82;3.67;;;;;;;10.77;100.00;102153.06;4981787;28;20138;-74
2023/05/02 10:19:25;;;;;;;13.23;4.20;;;;;;;10.96;100.00;102152.03;4977270;28;20054;-76
2023/05/02 10:21:53;;;;;;;15.38;4.75;;;;;;;11.17;100.00;102152.97;4982724;28;20050;-74
2023/05/02 10:24:20;;;;;;;12.70;3.83;;;;;;;11.31;100.00;102153.09;4978303;28;20772;-74
2023/05/02 10:26:47;;;;;;;13.70;4.07;;;;;;;11.48;100.00;102149.63;4979839;28;20073;-74
2023/05/02 10:29:14;;;;;;;7.50;3.08;;;;;;;11.60;100.00;102154.06;4975205;28;20054;-75
2023/05/02 10:31:41;;;;;;;14.75;4.00;;;;;;;11.65;100.00;102148.91;4974942;28;20563;-76
2023/05/02 10:34:11;;;;;;;11.43;2.92;;;;;;;11.68;100.00;102150.91;4974303;28;20058;-76
2023/05/02 10:36:37;;;;;;;9.63;2.85;;;;;;;11.77;100.00;102148.59;4979568;28;20046;-74
2023/05/02 10:39:05;;;;;;;12.90;3.58;;;;;;;11.82;100.00;102147.41;4981633;28;20069;-73
2023/05/02 10:41:34;;;;;;;10.35;3.15;;;;;;;11.80;100.00;102152.56;4985210;28;20065;-72
2023/05/02 10:44:06;;;;;;;14.30;3.58;;;;;;;11.70;100.00;102145.78;4980630;28;20054;-77
2023/05/02 10:46:36;;;;;;;15.55;3.63;;;;;;;11.58;100.00;102153.69;4978143;28;20749;-75
2023/05/02 10:49:05;;;;;;;8.60;3.15;;;;;;;11.55;100.00;102146.88;4970046;28;20579;-77
2023/05/02 10:51:32;;;;;;;8.27;2.55;;;;;;;11.43;100.00;102146.41;4973807;28;20097;-74
2023/05/02 10:54:22;;;;;;;9.38;3.35;;;;;;;11.55;100.00;102155.22;4982000;28;20057;-78
2023/05/02 10:57:04;;;;;;;9.32;2.97;;;;;;;11.54;100.00;102150.03;4970035;28;20149;-74
2023/05/02 10:59:38;;;;;;;9.93;3.05;;;;;;;11.70;100.00;102148.56;4975320;28;20058;-77
2023/05/02 11:02:22;;;;;;;13.52;3.10;;;;;;;11.73;100.00;102153.34;4977146;28;20069;-74
2023/05/02 11:05:05;;;;;;;13.18;3.38;;;;;;;11.82;100.00;102150.19;4977316;28;20588;-74
2023/05/02 11:07:35;;;;;;;13.90;3.47;;;;;;;11.94;100.00;102152.63;4976217;28;20050;-75
2023/05/02 11:10:26;;;;;;;8.88;2.60;;;;;;;12.10;100.00;102153.91;4977422;28;20054;-77
2023/05/02 11:12:59;;;;;;;9.15;3.20;;;;;;;12.24;100.00;102150.34;4975036;28;20050;-74
2023/05/02 11:15:31;;;;;;;6.15;2.17;;;;;;;12.30;100.00;102159.91;4974120;28;20047;-72
2023/05/02 11:17:57;;;;;;;6.60;2.70;;;;;;;12.26;100.00;102157.09;4977188;28;20608;-77
2023/05/02 11:20:24;;;;;;;9.50;2.90;;;;;;;12.45;100.00;102167.13;4977182;28;20050;-75